LHX7LJ LEZL-EDDM
Flight info
| Callsign | LHX7LJ |
|---|---|
| Flight time | N/A |
| Altitude | 34000 |
| Route | HIJ N10 CJN L27 YAKXU N871 TOPTU DCT ESPAL DCT OMASI N871 DITON T103 BETOS BETOS1B |
| Aircraft | A320/M-SDE3FGHIRWY/LB1 |
Departure
| Time | 2026-04-20 17:19 |
|---|---|
| Airport | Seville Airport (LEZL) |
Arrival
| Time | N/A |
|---|---|
| Airport | Munich Airport (EDDM) |
| Time | Latitude | Longitude | Altitude | Speed | Heading |
|---|---|---|---|---|---|
| 2026-04-20 16:55 | 37.42245 | -5.89914 | 94 ft | 0 kts | 314° |
| 2026-04-20 17:12 | 37.42235 | -5.89902 | 94 ft | 4 kts | 315° |
| 2026-04-20 17:12 | 37.42216 | -5.89879 | 92 ft | 4 kts | 321° |
| 2026-04-20 17:12 | 37.42194 | -5.89861 | 94 ft | 4 kts | 354° |
| 2026-04-20 17:13 | 37.42179 | -5.89864 | 94 ft | 0 kts | 45° |
| 2026-04-20 17:14 | 37.42189 | -5.89852 | 94 ft | 5 kts | 45° |
| 2026-04-20 17:14 | 37.42223 | -5.89809 | 93 ft | 10 kts | 45° |
| 2026-04-20 17:15 | 37.42259 | -5.89725 | 95 ft | 13 kts | 105° |
| 2026-04-20 17:15 | 37.42191 | -5.89625 | 95 ft | 17 kts | 135° |
| 2026-04-20 17:15 | 37.42100 | -5.89509 | 97 ft | 20 kts | 135° |
| 2026-04-20 17:15 | 37.41995 | -5.89370 | 99 ft | 23 kts | 119° |
| 2026-04-20 17:16 | 37.41982 | -5.89156 | 100 ft | 27 kts | 90° |
| 2026-04-20 17:16 | 37.41984 | -5.88912 | 102 ft | 30 kts | 88° |
| 2026-04-20 17:16 | 37.41986 | -5.88636 | 104 ft | 33 kts | 90° |
| 2026-04-20 17:16 | 37.41988 | -5.88336 | 105 ft | 35 kts | 89° |
| 2026-04-20 17:17 | 37.41988 | -5.88029 | 107 ft | 35 kts | 91° |
| 2026-04-20 17:17 | 37.41987 | -5.87720 | 108 ft | 35 kts | 89° |
| 2026-04-20 17:17 | 37.41960 | -5.87469 | 111 ft | 27 kts | 122° |
| 2026-04-20 17:17 | 37.41821 | -5.87475 | 116 ft | 22 kts | 238° |
| 2026-04-20 17:18 | 37.41800 | -5.87609 | 114 ft | 27 kts | 269° |
| 2026-04-20 17:18 | 37.41793 | -5.88083 | 108 ft | 88 kts | 270° |
| 2026-04-20 17:18 | 37.41793 | -5.89115 | 102 ft | 145 kts | 269° |
| 2026-04-20 17:18 | 37.41806 | -5.90535 | 371 ft | 168 kts | 270° |
| 2026-04-20 17:19 | 37.41839 | -5.92008 | 970 ft | 169 kts | 277° |
| 2026-04-20 17:19 | 37.42703 | -5.93662 | 1708 ft | 185 kts | 315° |
| 2026-04-20 17:19 | 37.43368 | -5.94433 | 1915 ft | 200 kts | 315° |
| 2026-04-20 17:19 | 37.44471 | -5.95669 | 2225 ft | 222 kts | 316° |
| 2026-04-20 17:20 | 37.45676 | -5.97021 | 2578 ft | 247 kts | 316° |
| 2026-04-20 17:20 | 37.47015 | -5.98539 | 3170 ft | 264 kts | 315° |
| 2026-04-20 17:20 | 37.48384 | -6.00107 | 4033 ft | 270 kts | 316° |
| 2026-04-20 17:20 | 37.49773 | -6.01716 | 4941 ft | 274 kts | 316° |
| 2026-04-20 17:21 | 37.51187 | -6.03367 | 5788 ft | 279 kts | 316° |
| 2026-04-20 17:21 | 37.52623 | -6.05056 | 6603 ft | 285 kts | 315° |
| 2026-04-20 17:21 | 37.54075 | -6.06771 | 7439 ft | 287 kts | 315° |
| 2026-04-20 17:21 | 37.55537 | -6.08499 | 8303 ft | 289 kts | 315° |
| 2026-04-20 17:22 | 37.57114 | -6.10093 | 9144 ft | 294 kts | 330° |
| 2026-04-20 17:22 | 37.59052 | -6.10834 | 9943 ft | 300 kts | 354° |
| 2026-04-20 17:22 | 37.61185 | -6.10495 | 10267 ft | 324 kts | 21° |
| 2026-04-20 17:22 | 37.63129 | -6.08883 | 10489 ft | 348 kts | 41° |
| 2026-04-20 17:23 | 37.64996 | -6.06797 | 10689 ft | 369 kts | 41° |
| 2026-04-20 17:23 | 37.66938 | -6.04608 | 11244 ft | 377 kts | 41° |
| 2026-04-20 17:23 | 37.68906 | -6.02387 | 11916 ft | 381 kts | 41° |
| 2026-04-20 17:23 | 37.70899 | -6.00147 | 12615 ft | 385 kts | 41° |
| 2026-04-20 17:24 | 37.72916 | -5.97894 | 13316 ft | 389 kts | 40° |
| 2026-04-20 17:24 | 37.74954 | -5.95626 | 13968 ft | 392 kts | 41° |
| 2026-04-20 17:24 | 37.77014 | -5.93340 | 14556 ft | 396 kts | 40° |
| 2026-04-20 17:24 | 37.79072 | -5.91058 | 15132 ft | 400 kts | 41° |
| 2026-04-20 17:25 | 37.81173 | -5.88720 | 15741 ft | 404 kts | 41° |
| 2026-04-20 17:25 | 37.83294 | -5.86358 | 16321 ft | 407 kts | 40° |
| 2026-04-20 17:25 | 37.85433 | -5.83973 | 16885 ft | 412 kts | 41° |
| 2026-04-20 17:25 | 37.87593 | -5.81560 | 17474 ft | 416 kts | 41° |
| 2026-04-20 17:26 | 37.89749 | -5.79147 | 18030 ft | 420 kts | 41° |
| 2026-04-20 17:26 | 37.91949 | -5.76686 | 18545 ft | 424 kts | 41° |
| 2026-04-20 17:26 | 37.94165 | -5.74203 | 19042 ft | 427 kts | 40° |
| 2026-04-20 17:26 | 37.96397 | -5.71699 | 19545 ft | 429 kts | 41° |
| 2026-04-20 17:27 | 37.98643 | -5.69171 | 20035 ft | 433 kts | 41° |
| 2026-04-20 17:27 | 38.00902 | -5.66625 | 20507 ft | 436 kts | 41° |
| 2026-04-20 17:27 | 38.03177 | -5.64064 | 20981 ft | 439 kts | 40° |
| 2026-04-20 17:27 | 38.05471 | -5.61484 | 21428 ft | 441 kts | 40° |
| 2026-04-20 17:28 | 38.07761 | -5.58909 | 21866 ft | 444 kts | 40° |
| 2026-04-20 17:28 | 38.10085 | -5.56292 | 22294 ft | 447 kts | 40° |
| 2026-04-20 17:28 | 38.12422 | -5.53656 | 22718 ft | 450 kts | 40° |
| 2026-04-20 17:28 | 38.14775 | -5.50999 | 23118 ft | 453 kts | 40° |
| 2026-04-20 17:29 | 38.17105 | -5.48363 | 23492 ft | 455 kts | 40° |
| 2026-04-20 17:29 | 38.19480 | -5.45674 | 23828 ft | 458 kts | 40° |
| 2026-04-20 17:29 | 38.21868 | -5.42966 | 24157 ft | 460 kts | 40° |